Airfield :
LOGIN :

Register | Disclaimer

   EN    FR    IT 

 










Legend :    VFR   Marginal VFR   IFR   Intensive IFR   Very Intensive IFR
Visi :
Ceiling :
>= 8 km
>= 3000ft
5 to 8 km
1000 to 3000 ft
1500m to 5 km
500 to 1000 ft
800 to 1500m
200 to 500 ft
< 800m
< 200 ft
Symbols :   Thunderstorms  Fog  Heavy snow  Heavy precipitations  Wind > 20 kt
SIGMETs :     Misc.  Thunderstorms  Icing  Turbulence  Mountain Waves  Volcanic Ashes






- Airport Elevation : 915 ft
- IATA code : LUG


LSZA - Lugano

CURRENT METAR :
  • 032250Z AUTO VRB06KT 9999 -TSRA FEW060CB SCT100 BKN110 18/18 Q1021

EXPIRED METARs :
  • 032150Z AUTO VRB02KT 9999 TS BKN080 SCT///CB 24/21 Q1017 RERA
  • 032120Z AUTO VRB01KT 9999 RA FEW047CB SCT110 BKN120 25/19 Q1018
  • 032050Z AUTO VRB02KT 9999 //////TCU 25/20 Q1017
  • 032020Z AUTO 35003KT 9999 SCT///CB 25/19 Q1017

TAF TAF LSZA
Valid from the 03 at 15:00 until the 04 at 00:00 UTC


031425Z 0315/0324 19004KT 9999 FEW070
PROB30
TEMPO 0318/0324 SHRA SCT060TCU
PROB30
TEMPO 0318/0324 19012G25KT 4500 TSRA SCT060CB
ATIS : +41 22 417 40 88



MET'MAP, your aeronautical weather chart ! - Copyright ORBIFLY December 2007 - Disclaimer

ORBIFLY MET'MAP TEAM :

Programming & Development : Alexandra Zaïnal
Original concept : Baudouin d'Aumeries
Technical & hardware support : Manuel Goepfert
Assistance : Marc-Olivier Méhu




SOURCES & CREDITS :

   NOAA